createdAt,value
2023-04-29T00:01:11.914Z,9.31
2023-04-29T00:03:58.611Z,9.25
2023-04-29T00:06:44.914Z,9.30
2023-04-29T00:09:31.052Z,9.24
2023-04-29T00:12:17.848Z,9.28
2023-04-29T00:15:04.776Z,9.23
2023-04-29T00:17:51.951Z,9.28
2023-04-29T00:20:39.258Z,9.29
2023-04-29T00:23:25.105Z,9.09
2023-04-29T00:26:11.826Z,9.25
2023-04-29T00:28:59.138Z,9.21
2023-04-29T00:31:46.198Z,9.22
2023-04-29T00:34:32.119Z,9.27
2023-04-29T00:37:18.864Z,9.28
2023-04-29T00:40:06.708Z,9.21
2023-04-29T00:42:52.881Z,9.04
2023-04-29T00:45:38.527Z,9.27
2023-04-29T00:48:24.548Z,9.24
2023-04-29T00:51:11.066Z,9.27
2023-04-29T00:53:57.744Z,9.28
2023-04-29T00:56:45.593Z,9.32
2023-04-29T00:59:32.508Z,9.44
2023-04-29T01:02:18.879Z,9.39
2023-04-29T01:05:05.337Z,9.45
2023-04-29T01:08:39.665Z,9.38
2023-04-29T01:11:33.723Z,9.15
2023-04-29T01:14:19.857Z,9.27
2023-04-29T01:17:10.972Z,9.15
2023-04-29T01:19:59.763Z,9.28
2023-04-29T01:22:47.491Z,9.03
2023-04-29T01:25:33.314Z,9.04
2023-04-29T01:28:54.700Z,9.34
2023-04-29T01:31:52.429Z,9.00
2023-04-29T01:34:51.644Z,9.26
2023-04-29T01:38:04.275Z,9.14
2023-04-29T01:40:59.437Z,9.20
2023-04-29T01:43:48.575Z,9.24
2023-04-29T01:46:41.169Z,9.25
2023-04-29T01:49:28.085Z,9.04
2023-04-29T01:52:14.817Z,9.28
2023-04-29T01:55:06.447Z,9.30
2023-04-29T01:58:02.595Z,9.26
2023-04-29T02:01:04.770Z,9.22
2023-04-29T02:03:52.713Z,9.23
2023-04-29T02:06:38.925Z,9.13
2023-04-29T02:09:25.545Z,9.35
2023-04-29T02:12:17.797Z,9.36
2023-04-29T02:15:04.426Z,9.41
2023-04-29T02:17:50.244Z,9.13
2023-04-29T02:20:39.699Z,9.15
2023-04-29T02:23:25.615Z,9.31
2023-04-29T02:26:12.114Z,8.96
2023-04-29T02:28:58.022Z,9.06
2023-04-29T02:31:44.119Z,9.17
2023-04-29T02:34:31.371Z,9.30
2023-04-29T02:37:19.216Z,9.16
2023-04-29T02:40:07.692Z,9.15
2023-04-29T02:42:53.721Z,9.01
2023-04-29T02:45:39.544Z,9.26
2023-04-29T02:48:25.891Z,9.38
2023-04-29T02:51:11.711Z,9.30
2023-04-29T02:53:57.684Z,9.52
2023-04-29T02:56:44.286Z,9.46
2023-04-29T02:59:30.200Z,9.63
2023-04-29T03:02:16.354Z,9.70
2023-04-29T03:05:05.795Z,9.76
2023-04-29T03:07:52.235Z,9.79
2023-04-29T03:10:41.503Z,9.76
2023-04-29T03:13:27.857Z,9.64
2023-04-29T03:16:16.942Z,9.41
2023-04-29T03:19:03.168Z,9.56
2023-04-29T03:21:51.556Z,9.69
2023-04-29T03:24:39.428Z,9.58
2023-04-29T03:27:25.728Z,9.45
2023-04-29T03:30:12.222Z,9.35
2023-04-29T03:33:05.066Z,9.35
2023-04-29T03:35:51.518Z,9.40
2023-04-29T03:38:52.792Z,9.35
2023-04-29T03:41:38.968Z,9.03
2023-04-29T03:44:25.705Z,9.01
2023-04-29T03:47:11.605Z,9.27
2023-04-29T03:49:57.873Z,9.23
2023-04-29T03:52:43.890Z,9.24
2023-04-29T03:55:34.247Z,9.17
2023-04-29T03:58:20.412Z,9.32
2023-04-29T04:01:06.213Z,9.32
2023-04-29T04:03:59.963Z,9.38
2023-04-29T04:06:51.992Z,9.31
2023-04-29T04:09:41.179Z,8.99
2023-04-29T04:12:27.974Z,9.10
2023-04-29T04:15:14.258Z,9.10
2023-04-29T04:18:00.916Z,9.16
2023-04-29T04:20:47.483Z,9.16
2023-04-29T04:23:33.941Z,9.19
2023-04-29T04:26:23.163Z,9.01
2023-04-29T04:29:23.263Z,9.21
2023-04-29T04:32:14.603Z,9.14
2023-04-29T04:35:00.376Z,8.93
2023-04-29T04:37:46.620Z,9.14
2023-04-29T04:40:32.851Z,9.00
2023-04-29T04:43:39.907Z,9.13
2023-04-29T04:46:32.367Z,9.23
2023-04-29T04:49:25.518Z,9.22
2023-04-29T04:52:12.049Z,9.21
2023-04-29T04:54:58.021Z,9.18
2023-04-29T04:57:46.430Z,9.14
2023-04-29T05:00:32.445Z,9.16
2023-04-29T05:03:18.896Z,9.38
2023-04-29T05:06:04.943Z,9.46
2023-04-29T05:08:51.333Z,9.31
2023-04-29T05:11:37.885Z,9.50
2023-04-29T05:14:42.185Z,9.61
2023-04-29T05:17:28.422Z,9.70
2023-04-29T05:20:15.092Z,9.73
2023-04-29T05:23:01.339Z,9.56
2023-04-29T05:25:49.610Z,9.87
2023-04-29T05:28:36.530Z,9.90
2023-04-29T05:31:23.228Z,9.99
2023-04-29T05:34:09.367Z,9.88
2023-04-29T05:36:55.755Z,9.81
2023-04-29T05:39:41.463Z,9.96
2023-04-29T05:42:33.119Z,9.88
2023-04-29T05:45:20.266Z,9.81
2023-04-29T05:48:08.911Z,9.84
2023-04-29T05:50:55.027Z,9.96
2023-04-29T05:53:41.797Z,10.04
2023-04-29T05:56:27.913Z,9.99
2023-04-29T05:59:15.151Z,10.03
2023-04-29T06:02:06.636Z,9.95
2023-04-29T06:04:54.457Z,9.96
2023-04-29T06:07:59.258Z,10.00
2023-04-29T06:11:03.508Z,10.04
2023-04-29T06:13:49.244Z,10.12
2023-04-29T06:16:35.701Z,10.31
2023-04-29T06:19:21.728Z,10.10
2023-04-29T06:22:08.540Z,10.21
2023-04-29T06:24:55.017Z,10.29
2023-04-29T06:28:04.554Z,10.35
2023-04-29T06:30:50.820Z,10.28
2023-04-29T06:33:38.516Z,10.29
2023-04-29T06:36:25.163Z,10.25
2023-04-29T06:39:34.697Z,10.52
2023-04-29T06:42:34.912Z,10.27
2023-04-29T06:45:47.111Z,10.68
2023-04-29T06:48:41.128Z,10.78
2023-04-29T06:51:28.108Z,10.59
2023-04-29T06:54:14.278Z,10.71
2023-04-29T06:57:00.896Z,10.70
2023-04-29T06:59:46.646Z,10.71
2023-04-29T07:02:32.765Z,10.75
2023-04-29T07:05:19.719Z,10.86
2023-04-29T07:08:06.214Z,10.92
2023-04-29T07:10:56.643Z,10.96
2023-04-29T07:13:43.611Z,11.11
2023-04-29T07:16:29.499Z,11.10
2023-04-29T07:19:16.121Z,11.37
2023-04-29T07:22:02.197Z,11.41
2023-04-29T07:24:48.785Z,11.21
2023-04-29T07:27:35.158Z,11.36
2023-04-29T07:30:21.048Z,11.37
2023-04-29T07:33:06.842Z,11.42
2023-04-29T07:35:53.207Z,11.60
2023-04-29T07:38:40.243Z,11.67
2023-04-29T07:41:26.832Z,11.67
2023-04-29T07:44:13.053Z,11.67
2023-04-29T07:46:59.009Z,11.71
2023-04-29T07:49:45.057Z,11.69
2023-04-29T07:52:31.404Z,11.79
2023-04-29T07:55:17.822Z,11.89
2023-04-29T07:58:04.091Z,11.95
2023-04-29T08:00:50.249Z,12.04
2023-04-29T08:03:39.804Z,12.13
2023-04-29T08:06:27.231Z,12.20
2023-04-29T08:09:13.547Z,12.05
2023-04-29T08:12:02.165Z,12.31
2023-04-29T08:14:48.486Z,12.42
2023-04-29T08:17:34.606Z,12.54
2023-04-29T08:20:21.132Z,12.50
2023-04-29T08:23:07.086Z,12.81
2023-04-29T08:25:55.283Z,12.72
2023-04-29T08:28:41.255Z,12.87
2023-04-29T08:31:27.551Z,13.00
2023-04-29T08:34:13.847Z,13.03
2023-04-29T08:36:59.898Z,13.04
2023-04-29T08:39:47.950Z,12.98
2023-04-29T08:42:37.694Z,13.04
2023-04-29T08:45:25.250Z,12.90
2023-04-29T08:48:11.962Z,13.02
2023-04-29T08:51:02.447Z,13.10
2023-04-29T08:53:48.457Z,12.91
2023-04-29T08:56:34.263Z,12.84
2023-04-29T08:59:21.177Z,12.98
2023-04-29T09:02:09.694Z,13.10
2023-04-29T09:05:03.931Z,13.00
2023-04-29T09:07:51.575Z,13.16
2023-04-29T09:10:38.847Z,13.12
2023-04-29T09:13:31.479Z,13.21
2023-04-29T09:16:17.568Z,13.23
2023-04-29T09:19:03.572Z,13.25
2023-04-29T09:21:55.849Z,13.31
2023-04-29T09:24:43.744Z,13.37
2023-04-29T09:27:29.720Z,13.04
2023-04-29T09:30:16.960Z,13.47
2023-04-29T09:33:08.101Z,13.47
2023-04-29T09:35:54.739Z,13.58
2023-04-29T09:38:54.956Z,13.47
2023-04-29T09:41:57.822Z,13.59
2023-04-29T09:44:45.283Z,13.89
2023-04-29T09:47:32.929Z,14.02
2023-04-29T09:50:19.869Z,14.10
2023-04-29T09:53:11.016Z,14.23
2023-04-29T09:56:03.822Z,14.22
2023-04-29T09:58:49.906Z,14.48
2023-04-29T10:01:36.024Z,14.77
2023-04-29T10:04:23.735Z,14.85
2023-04-29T10:07:15.860Z,14.84
2023-04-29T10:10:03.156Z,14.83
2023-04-29T10:12:49.841Z,14.66
2023-04-29T10:15:43.368Z,14.96
2023-04-29T10:18:41.933Z,14.94
2023-04-29T10:21:31.687Z,15.20
2023-04-29T10:24:19.413Z,15.18
2023-04-29T10:27:14.499Z,15.21
2023-04-29T10:30:01.132Z,15.32
2023-04-29T10:32:51.570Z,15.33
2023-04-29T10:35:38.718Z,15.35
2023-04-29T10:38:36.332Z,15.40
2023-04-29T10:41:25.709Z,15.39
2023-04-29T10:44:11.541Z,15.50
2023-04-29T10:47:20.273Z,15.70
2023-04-29T10:50:06.438Z,15.73
2023-04-29T10:52:52.878Z,15.74
2023-04-29T10:55:39.186Z,15.87
2023-04-29T10:58:41.062Z,15.93
2023-04-29T11:01:44.536Z,15.88
2023-04-29T11:04:31.669Z,15.88
2023-04-29T11:07:31.047Z,15.93
2023-04-29T11:10:16.656Z,16.03
2023-04-29T11:13:26.107Z,16.01
2023-04-29T11:16:12.339Z,15.92
2023-04-29T11:19:06.002Z,15.78
2023-04-29T11:22:04.673Z,15.92
2023-04-29T11:24:50.834Z,15.93
2023-04-29T11:27:39.983Z,16.23
2023-04-29T11:30:26.316Z,16.25
2023-04-29T11:33:11.737Z,16.36
2023-04-29T11:35:58.548Z,16.52
2023-04-29T11:38:44.487Z,16.44
2023-04-29T11:41:31.683Z,16.29
2023-04-29T11:44:22.656Z,16.26
2023-04-29T11:47:08.746Z,15.93
2023-04-29T11:50:11.563Z,16.31
2023-04-29T11:52:58.179Z,16.37
2023-04-29T11:55:44.859Z,16.49
2023-04-29T11:58:31.352Z,16.42
2023-04-29T12:01:17.236Z,16.51
2023-04-29T12:04:04.122Z,16.36
2023-04-29T12:06:53.058Z,16.35
2023-04-29T12:09:44.856Z,16.21
2023-04-29T12:12:35.004Z,16.10
2023-04-29T12:15:21.055Z,16.11
2023-04-29T12:18:06.987Z,16.09
2023-04-29T12:20:53.009Z,16.01
2023-04-29T12:23:39.363Z,15.84
2023-04-29T12:26:28.359Z,15.98
2023-04-29T12:29:14.706Z,15.85
2023-04-29T12:32:00.981Z,15.80
2023-04-29T12:34:47.666Z,15.60
2023-04-29T12:37:35.349Z,15.74
2023-04-29T12:40:21.765Z,15.77
2023-04-29T12:43:11.731Z,15.88
2023-04-29T12:46:04.227Z,15.96
2023-04-29T12:48:50.849Z,16.09
2023-04-29T12:51:37.573Z,16.21
2023-04-29T12:54:23.902Z,16.31
2023-04-29T12:57:11.780Z,16.25
2023-04-29T12:59:58.203Z,16.33
2023-04-29T13:02:44.726Z,16.26
2023-04-29T13:05:31.523Z,16.16
2023-04-29T13:08:18.280Z,16.23
2023-04-29T13:11:04.832Z,16.09
2023-04-29T13:13:50.724Z,16.21
2023-04-29T13:16:37.407Z,16.12
2023-04-29T13:22:13.509Z,15.95
2023-04-29T13:24:59.815Z,16.02
2023-04-29T13:27:45.730Z,16.00
2023-04-29T13:30:32.014Z,15.93
2023-04-29T13:33:19.622Z,15.82
2023-04-29T13:36:05.742Z,15.95
2023-04-29T13:38:55.603Z,16.02
2023-04-29T13:41:45.492Z,16.06
2023-04-29T13:44:44.505Z,16.13
2023-04-29T13:47:55.037Z,16.20
2023-04-29T13:59:36.318Z,15.99
2023-04-29T14:02:24.944Z,16.09
2023-04-29T14:05:11.750Z,16.28
2023-04-29T14:07:58.038Z,16.36
2023-04-29T14:10:44.019Z,16.44
2023-04-29T14:13:30.703Z,16.34
2023-04-29T14:16:17.541Z,16.36
2023-04-29T14:19:04.404Z,16.32
2023-04-29T14:21:50.638Z,16.24
2023-04-29T14:24:39.380Z,16.19
2023-04-29T14:27:25.294Z,16.15
2023-04-29T14:30:11.768Z,16.12
2023-04-29T14:32:57.876Z,16.05
2023-04-29T14:35:43.737Z,16.01
2023-04-29T14:38:29.283Z,15.97
2023-04-29T14:41:16.051Z,15.92
2023-04-29T14:44:02.064Z,15.95
2023-04-29T14:46:49.002Z,15.99
2023-04-29T14:49:35.268Z,15.91
2023-04-29T14:52:21.230Z,16.07
2023-04-29T14:55:07.927Z,16.10
2023-04-29T14:57:54.534Z,16.01
2023-04-29T15:00:40.487Z,15.99
2023-04-29T15:03:26.831Z,15.96
2023-04-29T15:06:13.371Z,15.85
2023-04-29T15:09:00.187Z,15.77
2023-04-29T15:11:46.245Z,15.59
2023-04-29T15:14:33.587Z,15.34
2023-04-29T15:17:19.698Z,15.15
2023-04-29T15:20:07.718Z,14.93
2023-04-29T15:22:53.594Z,14.58
2023-04-29T15:25:40.313Z,14.60
2023-04-29T15:28:26.420Z,14.30
2023-04-29T15:31:13.312Z,14.35
2023-04-29T15:33:59.821Z,14.26
2023-04-29T15:36:46.202Z,14.05
2023-04-29T15:39:31.772Z,14.05
2023-04-29T15:42:17.967Z,13.80
2023-04-29T15:45:04.107Z,13.95
2023-04-29T15:47:50.746Z,13.91
2023-04-29T15:50:36.603Z,13.78
2023-04-29T15:53:23.362Z,13.64
2023-04-29T15:56:08.989Z,13.77
2023-04-29T15:58:54.904Z,13.52
2023-04-29T16:01:40.744Z,13.53
2023-04-29T16:04:26.869Z,13.62
2023-04-29T16:07:12.902Z,13.60
2023-04-29T16:09:58.963Z,13.50
2023-04-29T16:12:45.182Z,13.42
2023-04-29T16:15:31.754Z,13.39
2023-04-29T16:18:18.403Z,13.30
2023-04-29T16:21:05.632Z,13.33
2023-04-29T16:23:51.686Z,13.28
2023-04-29T16:26:40.336Z,13.26
2023-04-29T16:29:26.520Z,13.23
2023-04-29T16:32:12.869Z,13.19
2023-04-29T16:35:00.149Z,12.99
2023-04-29T16:37:47.865Z,13.21
2023-04-29T16:40:33.587Z,13.18
2023-04-29T16:43:19.877Z,13.24
2023-04-29T16:46:06.418Z,13.03
2023-04-29T16:48:56.801Z,13.23
2023-04-29T16:51:43.017Z,13.21
2023-04-29T16:54:28.803Z,13.16
2023-04-29T16:57:14.451Z,13.14
2023-04-29T17:00:00.339Z,13.06
2023-04-29T17:02:48.480Z,13.11
2023-04-29T17:05:36.018Z,13.00
2023-04-29T17:08:21.926Z,13.10
2023-04-29T17:11:08.246Z,13.06
2023-04-29T17:13:54.561Z,13.04
2023-04-29T17:16:40.848Z,13.08
2023-04-29T17:19:27.011Z,13.05
2023-04-29T17:22:13.348Z,13.05
2023-04-29T17:24:58.852Z,13.02
2023-04-29T17:27:46.141Z,12.94
2023-04-29T17:30:33.357Z,12.78
2023-04-29T17:33:19.205Z,12.90
2023-04-29T17:36:06.337Z,12.67
2023-04-29T17:38:52.279Z,12.75
2023-04-29T17:41:38.281Z,12.64
2023-04-29T17:44:24.460Z,12.68
2023-04-29T17:47:11.202Z,12.64
2023-04-29T17:50:00.229Z,12.52
2023-04-29T17:52:48.176Z,12.56
2023-04-29T17:55:34.572Z,12.38
2023-04-29T17:58:21.599Z,12.49
2023-04-29T18:01:08.329Z,12.49
2023-04-29T18:03:54.528Z,12.48
2023-04-29T18:06:41.112Z,12.38
2023-04-29T18:09:27.112Z,12.47
2023-04-29T18:12:14.470Z,12.23
2023-04-29T18:15:01.963Z,12.42
2023-04-29T18:17:48.116Z,12.46
2023-04-29T18:20:34.481Z,12.41
2023-04-29T18:23:20.711Z,12.38
2023-04-29T18:26:06.536Z,12.13
2023-04-29T18:28:53.078Z,12.21
2023-04-29T18:31:39.243Z,12.10
2023-04-29T18:34:25.924Z,12.15
2023-04-29T18:37:12.416Z,11.98
2023-04-29T18:39:58.607Z,12.18
2023-04-29T18:42:44.767Z,11.95
2023-04-29T18:45:31.259Z,12.09
2023-04-29T18:48:17.468Z,11.97
2023-04-29T18:51:06.025Z,11.86
2023-04-29T18:53:52.481Z,11.80
2023-04-29T18:56:40.172Z,11.77
2023-04-29T18:59:26.960Z,11.68
2023-04-29T19:02:15.099Z,11.67
2023-04-29T19:05:06.265Z,11.62
2023-04-29T19:07:52.544Z,11.58
2023-04-29T19:10:38.853Z,11.42
2023-04-29T19:13:26.745Z,11.52
2023-04-29T19:16:12.842Z,11.34
2023-04-29T19:18:59.268Z,11.34
2023-04-29T19:21:45.560Z,11.34
2023-04-29T19:24:32.838Z,11.29
2023-04-29T19:27:18.687Z,11.20
2023-04-29T19:30:05.639Z,11.22
2023-04-29T19:32:51.827Z,11.18
2023-04-29T19:35:38.593Z,11.07
2023-04-29T19:38:25.794Z,11.12
2023-04-29T19:41:12.375Z,10.93
2023-04-29T19:43:58.715Z,11.07
2023-04-29T19:46:45.491Z,10.99
2023-04-29T19:49:31.770Z,11.01
2023-04-29T19:52:17.988Z,11.05
2023-04-29T19:55:05.037Z,11.04
2023-04-29T19:57:52.686Z,11.00
2023-04-29T20:00:38.523Z,11.01
2023-04-29T20:03:25.530Z,10.96
2023-04-29T20:06:12.465Z,10.96
2023-04-29T20:08:59.347Z,10.95
2023-04-29T20:11:45.650Z,10.86
2023-04-29T20:14:33.116Z,10.85
2023-04-29T20:17:19.500Z,10.64
2023-04-29T20:20:09.180Z,10.74
2023-04-29T20:22:58.177Z,10.62
2023-04-29T20:25:44.363Z,10.57
2023-04-29T20:28:30.560Z,10.48
2023-04-29T20:31:17.080Z,10.45
2023-04-29T20:34:02.780Z,10.34
2023-04-29T20:36:49.226Z,10.35
2023-04-29T20:39:35.301Z,10.28
2023-04-29T20:42:22.302Z,10.30
2023-04-29T20:45:08.941Z,10.27
2023-04-29T20:47:55.301Z,10.27
2023-04-29T20:50:41.129Z,10.30
2023-04-29T20:53:27.019Z,10.07
2023-04-29T20:56:13.795Z,10.24
2023-04-29T20:58:59.807Z,10.16
2023-04-29T21:01:46.454Z,10.15
2023-04-29T21:04:33.189Z,10.15
2023-04-29T21:07:19.221Z,10.12
2023-04-29T21:10:05.917Z,10.12
2023-04-29T21:12:52.385Z,10.09
2023-04-29T21:15:39.496Z,10.08
2023-04-29T21:18:26.091Z,10.06
2023-04-29T21:21:13.208Z,10.00
2023-04-29T21:23:59.284Z,9.94
2023-04-29T21:26:46.042Z,9.84
2023-04-29T21:29:31.900Z,9.80
2023-04-29T21:32:21.695Z,9.91
2023-04-29T21:35:08.625Z,9.89
2023-04-29T21:37:54.872Z,9.64
2023-04-29T21:40:41.634Z,9.88
2023-04-29T21:43:28.591Z,9.71
2023-04-29T21:46:15.589Z,9.88
2023-04-29T21:49:02.869Z,9.82
2023-04-29T21:51:48.627Z,9.67
2023-04-29T21:54:34.790Z,9.88
2023-04-29T21:57:28.949Z,9.95
2023-04-29T22:00:33.669Z,9.70
2023-04-29T22:03:19.371Z,9.71
2023-04-29T22:06:05.782Z,9.91
2023-04-29T22:08:51.898Z,9.87
2023-04-29T22:11:38.716Z,9.91
2023-04-29T22:14:24.369Z,9.82
2023-04-29T22:17:10.905Z,9.88
2023-04-29T22:19:56.895Z,9.82
2023-04-29T22:22:43.001Z,9.74
2023-04-29T22:25:29.017Z,9.79
2023-04-29T22:28:15.360Z,9.71
2023-04-29T22:31:01.305Z,9.72
2023-04-29T22:33:47.934Z,9.55
2023-04-29T22:36:34.089Z,9.68
2023-04-29T22:39:20.509Z,9.49
2023-04-29T22:42:07.129Z,9.67
2023-04-29T22:44:53.623Z,9.61
2023-04-29T22:47:39.859Z,9.62
2023-04-29T22:50:26.150Z,9.45
2023-04-29T22:53:11.878Z,9.58
2023-04-29T22:55:59.503Z,9.32
2023-04-29T22:58:45.318Z,9.32
2023-04-29T23:01:31.609Z,9.45
2023-04-29T23:04:18.133Z,9.38
2023-04-29T23:07:04.312Z,9.33
2023-04-29T23:09:51.127Z,9.17
2023-04-29T23:12:37.106Z,9.18
2023-04-29T23:15:23.434Z,9.11
2023-04-29T23:18:09.989Z,8.94
2023-04-29T23:20:56.832Z,8.93
2023-04-29T23:23:43.473Z,8.81
2023-04-29T23:26:29.546Z,8.79
2023-04-29T23:29:16.150Z,8.77
2023-04-29T23:32:02.227Z,8.69
2023-04-29T23:34:48.335Z,8.59
2023-04-29T23:37:34.664Z,8.39
2023-04-29T23:40:21.356Z,8.36
2023-04-29T23:43:07.200Z,8.39
2023-04-29T23:45:53.475Z,8.37
2023-04-29T23:48:39.665Z,8.27
2023-04-29T23:51:26.555Z,8.17
2023-04-29T23:54:12.216Z,8.11
2023-04-29T23:56:58.366Z,8.05
2023-04-29T23:59:45.640Z,8.00
